<?xml version="1.0" encoding="UTF-8" standalone="no" ?>
<gpx xmlns="http://www.topografix.com/GPX/1/1" xmlns:xsi="http://www.w3.org/2001/XMLSchema-instance" xsi:schemaLocation="http://www.topografix.com/GPX/1/1 http://www.topografix.com/GPX/1/1/gpx.xsd" version="1.1" creator="VisuGPX - https://www.visugpx.com">
  <metadata>
    <name>Belley / Colomieu6</name>
    <desc><![CDATA[Ain - Bugey.
Boucle au départ de Belley.
Passage à Vieugey, Thoys, Fontaine Vallin, Colomieu, Châtelin, Les Tessonnières, Lac d'Armaille, Bognens, Bilignin.]]></desc>
  </metadata>
  <trk>
    <name><![CDATA[10574100-Belley / Colomieu6]]></name>
    <trkseg>
      <trkpt lat="45.75805" lon="5.68934">
        <ele>281</ele>
        <time>2019-10-02T19:27:56Z</time>
      </trkpt>
      <trkpt lat="45.75813" lon="5.68908">
        <ele>280</ele>
        <time>2019-10-02T19:28:01Z</time>
      </trkpt>
      <trkpt lat="45.75801" lon="5.68909">
        <ele>280</ele>
        <time>2019-10-02T19:28:03Z</time>
      </trkpt>
      <trkpt lat="45.75777" lon="5.68901">
        <ele>280</ele>
        <time>2019-10-02T19:28:09Z</time>
      </trkpt>
      <trkpt lat="45.75781" lon="5.68878">
        <ele>280</ele>
        <time>2019-10-02T19:28:13Z</time>
      </trkpt>
      <trkpt lat="45.75775" lon="5.68863">
        <ele>280</ele>
        <time>2019-10-02T19:28:16Z</time>
      </trkpt>
      <trkpt lat="45.75779" lon="5.68849">
        <ele>280</ele>
        <time>2019-10-02T19:28:18Z</time>
      </trkpt>
      <trkpt lat="45.7579" lon="5.68828">
        <ele>279</ele>
        <time>2019-10-02T19:28:23Z</time>
      </trkpt>
      <trkpt lat="45.75743" lon="5.68791">
        <ele>280</ele>
        <time>2019-10-02T19:28:35Z</time>
      </trkpt>
      <trkpt lat="45.75708" lon="5.68768">
        <ele>281</ele>
        <time>2019-10-02T19:28:44Z</time>
      </trkpt>
      <trkpt lat="45.75697" lon="5.68765">
        <ele>282</ele>
        <time>2019-10-02T19:28:47Z</time>
      </trkpt>
      <trkpt lat="45.75683" lon="5.68756">
        <ele>282</ele>
        <time>2019-10-02T19:28:50Z</time>
      </trkpt>
      <trkpt lat="45.75601" lon="5.68667">
        <ele>286</ele>
        <time>2019-10-02T19:29:14Z</time>
      </trkpt>
      <trkpt lat="45.75594" lon="5.68656">
        <ele>287</ele>
        <time>2019-10-02T19:29:17Z</time>
      </trkpt>
      <trkpt lat="45.75558" lon="5.68518">
        <ele>289</ele>
        <time>2019-10-02T19:29:41Z</time>
      </trkpt>
      <trkpt lat="45.75551" lon="5.68475">
        <ele>289</ele>
        <time>2019-10-02T19:29:48Z</time>
      </trkpt>
      <trkpt lat="45.75564" lon="5.6839">
        <ele>288</ele>
        <time>2019-10-02T19:30:02Z</time>
      </trkpt>
      <trkpt lat="45.75575" lon="5.68381">
        <ele>288</ele>
        <time>2019-10-02T19:30:05Z</time>
      </trkpt>
      <trkpt lat="45.75579" lon="5.68371">
        <ele>287</ele>
        <time>2019-10-02T19:30:07Z</time>
      </trkpt>
      <trkpt lat="45.75573" lon="5.68355">
        <ele>288</ele>
        <time>2019-10-02T19:30:10Z</time>
      </trkpt>
      <trkpt lat="45.75573" lon="5.6834">
        <ele>287</ele>
        <time>2019-10-02T19:30:12Z</time>
      </trkpt>
      <trkpt lat="45.75603" lon="5.68166">
        <ele>289</ele>
        <time>2019-10-02T19:30:42Z</time>
      </trkpt>
      <trkpt lat="45.75575" lon="5.68149">
        <ele>289</ele>
        <time>2019-10-02T19:30:49Z</time>
      </trkpt>
      <trkpt lat="45.75539" lon="5.68119">
        <ele>290</ele>
        <time>2019-10-02T19:30:58Z</time>
      </trkpt>
      <trkpt lat="45.75518" lon="5.681">
        <ele>291</ele>
        <time>2019-10-02T19:31:04Z</time>
      </trkpt>
      <trkpt lat="45.755" lon="5.68076">
        <ele>292</ele>
        <time>2019-10-02T19:31:10Z</time>
      </trkpt>
      <trkpt lat="45.75491" lon="5.68053">
        <ele>291</ele>
        <time>2019-10-02T19:31:14Z</time>
      </trkpt>
      <trkpt lat="45.7549" lon="5.68039">
        <ele>291</ele>
        <time>2019-10-02T19:31:17Z</time>
      </trkpt>
      <trkpt lat="45.75492" lon="5.68021">
        <ele>291</ele>
        <time>2019-10-02T19:31:20Z</time>
      </trkpt>
      <trkpt lat="45.755" lon="5.67988">
        <ele>290</ele>
        <time>2019-10-02T19:31:25Z</time>
      </trkpt>
      <trkpt lat="45.75494" lon="5.67965">
        <ele>290</ele>
        <time>2019-10-02T19:31:29Z</time>
      </trkpt>
      <trkpt lat="45.75487" lon="5.67949">
        <ele>290</ele>
        <time>2019-10-02T19:31:32Z</time>
      </trkpt>
      <trkpt lat="45.75407" lon="5.6785">
        <ele>290</ele>
        <time>2019-10-02T19:31:57Z</time>
      </trkpt>
      <trkpt lat="45.75337" lon="5.67746">
        <ele>289</ele>
        <time>2019-10-02T19:32:21Z</time>
      </trkpt>
      <trkpt lat="45.75319" lon="5.67703">
        <ele>288</ele>
        <time>2019-10-02T19:32:29Z</time>
      </trkpt>
      <trkpt lat="45.75299" lon="5.67618">
        <ele>287</ele>
        <time>2019-10-02T19:32:43Z</time>
      </trkpt>
      <trkpt lat="45.75274" lon="5.67526">
        <ele>291</ele>
        <time>2019-10-02T19:32:59Z</time>
      </trkpt>
      <trkpt lat="45.75288" lon="5.67486">
        <ele>293</ele>
        <time>2019-10-02T19:33:07Z</time>
      </trkpt>
      <trkpt lat="45.75294" lon="5.67457">
        <ele>295</ele>
        <time>2019-10-02T19:33:12Z</time>
      </trkpt>
      <trkpt lat="45.75295" lon="5.67439">
        <ele>295</ele>
        <time>2019-10-02T19:33:15Z</time>
      </trkpt>
      <trkpt lat="45.7529" lon="5.67418">
        <ele>296</ele>
        <time>2019-10-02T19:33:18Z</time>
      </trkpt>
      <trkpt lat="45.75289" lon="5.67383">
        <ele>297</ele>
        <time>2019-10-02T19:33:24Z</time>
      </trkpt>
      <trkpt lat="45.75295" lon="5.67309">
        <ele>297</ele>
        <time>2019-10-02T19:33:36Z</time>
      </trkpt>
      <trkpt lat="45.75301" lon="5.67269">
        <ele>294</ele>
        <time>2019-10-02T19:33:43Z</time>
      </trkpt>
      <trkpt lat="45.75305" lon="5.67199">
        <ele>290</ele>
        <time>2019-10-02T19:33:54Z</time>
      </trkpt>
      <trkpt lat="45.75295" lon="5.67163">
        <ele>288</ele>
        <time>2019-10-02T19:34:00Z</time>
      </trkpt>
      <trkpt lat="45.75247" lon="5.67088">
        <ele>285</ele>
        <time>2019-10-02T19:34:17Z</time>
      </trkpt>
      <trkpt lat="45.75242" lon="5.67076">
        <ele>284</ele>
        <time>2019-10-02T19:34:19Z</time>
      </trkpt>
      <trkpt lat="45.75232" lon="5.67037">
        <ele>283</ele>
        <time>2019-10-02T19:34:26Z</time>
      </trkpt>
      <trkpt lat="45.75226" lon="5.66937">
        <ele>275</ele>
        <time>2019-10-02T19:34:42Z</time>
      </trkpt>
      <trkpt lat="45.75217" lon="5.669">
        <ele>272</ele>
        <time>2019-10-02T19:34:49Z</time>
      </trkpt>
      <trkpt lat="45.75209" lon="5.66887">
        <ele>271</ele>
        <time>2019-10-02T19:34:52Z</time>
      </trkpt>
      <trkpt lat="45.75168" lon="5.66849">
        <ele>272</ele>
        <time>2019-10-02T19:35:03Z</time>
      </trkpt>
      <trkpt lat="45.7516" lon="5.66836">
        <ele>271</ele>
        <time>2019-10-02T19:35:06Z</time>
      </trkpt>
      <trkpt lat="45.75141" lon="5.66774">
        <ele>267</ele>
        <time>2019-10-02T19:35:17Z</time>
      </trkpt>
      <trkpt lat="45.75131" lon="5.66631">
        <ele>259</ele>
        <time>2019-10-02T19:35:40Z</time>
      </trkpt>
      <trkpt lat="45.75109" lon="5.66498">
        <ele>252</ele>
        <time>2019-10-02T19:36:03Z</time>
      </trkpt>
      <trkpt lat="45.75114" lon="5.66483">
        <ele>251</ele>
        <time>2019-10-02T19:36:05Z</time>
      </trkpt>
      <trkpt lat="45.75122" lon="5.66471">
        <ele>250</ele>
        <time>2019-10-02T19:36:08Z</time>
      </trkpt>
      <trkpt lat="45.75131" lon="5.66464">
        <ele>250</ele>
        <time>2019-10-02T19:36:10Z</time>
      </trkpt>
      <trkpt lat="45.75157" lon="5.66448">
        <ele>250</ele>
        <time>2019-10-02T19:36:17Z</time>
      </trkpt>
      <trkpt lat="45.75175" lon="5.66441">
        <ele>250</ele>
        <time>2019-10-02T19:36:21Z</time>
      </trkpt>
      <trkpt lat="45.75222" lon="5.66415">
        <ele>246</ele>
        <time>2019-10-02T19:36:33Z</time>
      </trkpt>
      <trkpt lat="45.75254" lon="5.66406">
        <ele>246</ele>
        <time>2019-10-02T19:36:41Z</time>
      </trkpt>
      <trkpt lat="45.75331" lon="5.66403">
        <ele>248</ele>
        <time>2019-10-02T19:36:59Z</time>
      </trkpt>
      <trkpt lat="45.75339" lon="5.66398">
        <ele>247</ele>
        <time>2019-10-02T19:37:01Z</time>
      </trkpt>
      <trkpt lat="45.75347" lon="5.66378">
        <ele>243</ele>
        <time>2019-10-02T19:37:05Z</time>
      </trkpt>
      <trkpt lat="45.75351" lon="5.66349">
        <ele>239</ele>
        <time>2019-10-02T19:37:09Z</time>
      </trkpt>
      <trkpt lat="45.75349" lon="5.66338">
        <ele>237</ele>
        <time>2019-10-02T19:37:11Z</time>
      </trkpt>
      <trkpt lat="45.75341" lon="5.66332">
        <ele>236</ele>
        <time>2019-10-02T19:37:13Z</time>
      </trkpt>
      <trkpt lat="45.75323" lon="5.66325">
        <ele>235</ele>
        <time>2019-10-02T19:37:18Z</time>
      </trkpt>
      <trkpt lat="45.75317" lon="5.66316">
        <ele>235</ele>
        <time>2019-10-02T19:37:20Z</time>
      </trkpt>
      <trkpt lat="45.75313" lon="5.66301">
        <ele>234</ele>
        <time>2019-10-02T19:37:22Z</time>
      </trkpt>
      <trkpt lat="45.75314" lon="5.6627">
        <ele>233</ele>
        <time>2019-10-02T19:37:27Z</time>
      </trkpt>
      <trkpt lat="45.75321" lon="5.66235">
        <ele>232</ele>
        <time>2019-10-02T19:37:33Z</time>
      </trkpt>
      <trkpt lat="45.7533" lon="5.66143">
        <ele>231</ele>
        <time>2019-10-02T19:37:48Z</time>
      </trkpt>
      <trkpt lat="45.75128" lon="5.66067">
        <ele>229</ele>
        <time>2019-10-02T19:38:37Z</time>
      </trkpt>
      <trkpt lat="45.75101" lon="5.66054">
        <ele>228</ele>
        <time>2019-10-02T19:38:44Z</time>
      </trkpt>
      <trkpt lat="45.7508" lon="5.66052">
        <ele>228</ele>
        <time>2019-10-02T19:38:49Z</time>
      </trkpt>
      <trkpt lat="45.75028" lon="5.6607">
        <ele>228</ele>
        <time>2019-10-02T19:39:01Z</time>
      </trkpt>
      <trkpt lat="45.74973" lon="5.66104">
        <ele>228</ele>
        <time>2019-10-02T19:39:15Z</time>
      </trkpt>
      <trkpt lat="45.74954" lon="5.66119">
        <ele>229</ele>
        <time>2019-10-02T19:39:20Z</time>
      </trkpt>
      <trkpt lat="45.74874" lon="5.66147">
        <ele>229</ele>
        <time>2019-10-02T19:39:40Z</time>
      </trkpt>
      <trkpt lat="45.74838" lon="5.66168">
        <ele>230</ele>
        <time>2019-10-02T19:39:49Z</time>
      </trkpt>
      <trkpt lat="45.74785" lon="5.66191">
        <ele>230</ele>
        <time>2019-10-02T19:40:02Z</time>
      </trkpt>
      <trkpt lat="45.74774" lon="5.662">
        <ele>230</ele>
        <time>2019-10-02T19:40:05Z</time>
      </trkpt>
      <trkpt lat="45.74753" lon="5.66211">
        <ele>230</ele>
        <time>2019-10-02T19:40:10Z</time>
      </trkpt>
      <trkpt lat="45.74669" lon="5.66243">
        <ele>231</ele>
        <time>2019-10-02T19:40:30Z</time>
      </trkpt>
      <trkpt lat="45.7465" lon="5.66245">
        <ele>232</ele>
        <time>2019-10-02T19:40:34Z</time>
      </trkpt>
      <trkpt lat="45.7461" lon="5.66243">
        <ele>232</ele>
        <time>2019-10-02T19:40:44Z</time>
      </trkpt>
      <trkpt lat="45.74523" lon="5.66235">
        <ele>231</ele>
        <time>2019-10-02T19:41:04Z</time>
      </trkpt>
      <trkpt lat="45.7451" lon="5.66237">
        <ele>231</ele>
        <time>2019-10-02T19:41:07Z</time>
      </trkpt>
      <trkpt lat="45.74436" lon="5.66269">
        <ele>236</ele>
        <time>2019-10-02T19:41:25Z</time>
      </trkpt>
      <trkpt lat="45.74385" lon="5.66269">
        <ele>239</ele>
        <time>2019-10-02T19:41:37Z</time>
      </trkpt>
      <trkpt lat="45.74354" lon="5.66266">
        <ele>240</ele>
        <time>2019-10-02T19:41:44Z</time>
      </trkpt>
      <trkpt lat="45.74315" lon="5.66255">
        <ele>240</ele>
        <time>2019-10-02T19:41:54Z</time>
      </trkpt>
      <trkpt lat="45.7427" lon="5.6623">
        <ele>240</ele>
        <time>2019-10-02T19:42:05Z</time>
      </trkpt>
      <trkpt lat="45.74235" lon="5.66202">
        <ele>239</ele>
        <time>2019-10-02T19:42:14Z</time>
      </trkpt>
      <trkpt lat="45.74169" lon="5.66163">
        <ele>237</ele>
        <time>2019-10-02T19:42:31Z</time>
      </trkpt>
      <trkpt lat="45.74118" lon="5.66123">
        <ele>237</ele>
        <time>2019-10-02T19:42:45Z</time>
      </trkpt>
      <trkpt lat="45.74049" lon="5.6605">
        <ele>232</ele>
        <time>2019-10-02T19:43:05Z</time>
      </trkpt>
      <trkpt lat="45.74042" lon="5.66037">
        <ele>232</ele>
        <time>2019-10-02T19:43:07Z</time>
      </trkpt>
      <trkpt lat="45.74036" lon="5.66011">
        <ele>230</ele>
        <time>2019-10-02T19:43:12Z</time>
      </trkpt>
      <trkpt lat="45.74037" lon="5.65973">
        <ele>229</ele>
        <time>2019-10-02T19:43:18Z</time>
      </trkpt>
      <trkpt lat="45.74052" lon="5.65896">
        <ele>228</ele>
        <time>2019-10-02T19:43:31Z</time>
      </trkpt>
      <trkpt lat="45.74055" lon="5.6587">
        <ele>228</ele>
        <time>2019-10-02T19:43:35Z</time>
      </trkpt>
      <trkpt lat="45.74076" lon="5.65843">
        <ele>228</ele>
        <time>2019-10-02T19:43:42Z</time>
      </trkpt>
      <trkpt lat="45.74089" lon="5.65801">
        <ele>229</ele>
        <time>2019-10-02T19:43:49Z</time>
      </trkpt>
      <trkpt lat="45.74098" lon="5.65787">
        <ele>229</ele>
        <time>2019-10-02T19:43:53Z</time>
      </trkpt>
      <trkpt lat="45.74113" lon="5.65771">
        <ele>229</ele>
        <time>2019-10-02T19:43:57Z</time>
      </trkpt>
      <trkpt lat="45.74166" lon="5.65725">
        <ele>230</ele>
        <time>2019-10-02T19:44:11Z</time>
      </trkpt>
      <trkpt lat="45.74217" lon="5.657">
        <ele>230</ele>
        <time>2019-10-02T19:44:24Z</time>
      </trkpt>
      <trkpt lat="45.74224" lon="5.65692">
        <ele>230</ele>
        <time>2019-10-02T19:44:26Z</time>
      </trkpt>
      <trkpt lat="45.74232" lon="5.65669">
        <ele>230</ele>
        <time>2019-10-02T19:44:30Z</time>
      </trkpt>
      <trkpt lat="45.74239" lon="5.65607">
        <ele>230</ele>
        <time>2019-10-02T19:44:40Z</time>
      </trkpt>
      <trkpt lat="45.74243" lon="5.65588">
        <ele>230</ele>
        <time>2019-10-02T19:44:44Z</time>
      </trkpt>
      <trkpt lat="45.74253" lon="5.6556">
        <ele>230</ele>
        <time>2019-10-02T19:44:49Z</time>
      </trkpt>
      <trkpt lat="45.74261" lon="5.65511">
        <ele>231</ele>
        <time>2019-10-02T19:44:57Z</time>
      </trkpt>
      <trkpt lat="45.7426" lon="5.65498">
        <ele>231</ele>
        <time>2019-10-02T19:44:59Z</time>
      </trkpt>
      <trkpt lat="45.74219" lon="5.65483">
        <ele>232</ele>
        <time>2019-10-02T19:45:09Z</time>
      </trkpt>
      <trkpt lat="45.74202" lon="5.65474">
        <ele>232</ele>
        <time>2019-10-02T19:45:13Z</time>
      </trkpt>
      <trkpt lat="45.74183" lon="5.65448">
        <ele>233</ele>
        <time>2019-10-02T19:45:19Z</time>
      </trkpt>
      <trkpt lat="45.74175" lon="5.6544">
        <ele>233</ele>
        <time>2019-10-02T19:45:22Z</time>
      </trkpt>
      <trkpt lat="45.74161" lon="5.65432">
        <ele>233</ele>
        <time>2019-10-02T19:45:25Z</time>
      </trkpt>
      <trkpt lat="45.74129" lon="5.65423">
        <ele>233</ele>
        <time>2019-10-02T19:45:33Z</time>
      </trkpt>
      <trkpt lat="45.74109" lon="5.6542">
        <ele>233</ele>
        <time>2019-10-02T19:45:37Z</time>
      </trkpt>
      <trkpt lat="45.74062" lon="5.65419">
        <ele>233</ele>
        <time>2019-10-02T19:45:48Z</time>
      </trkpt>
      <trkpt lat="45.74035" lon="5.65425">
        <ele>233</ele>
        <time>2019-10-02T19:45:55Z</time>
      </trkpt>
      <trkpt lat="45.73996" lon="5.65428">
        <ele>233</ele>
        <time>2019-10-02T19:46:04Z</time>
      </trkpt>
      <trkpt lat="45.73987" lon="5.65332">
        <ele>234</ele>
        <time>2019-10-02T19:46:20Z</time>
      </trkpt>
      <trkpt lat="45.73988" lon="5.65112">
        <ele>249</ele>
        <time>2019-10-02T19:46:56Z</time>
      </trkpt>
      <trkpt lat="45.74005" lon="5.65091">
        <ele>251</ele>
        <time>2019-10-02T19:47:01Z</time>
      </trkpt>
      <trkpt lat="45.74031" lon="5.65078">
        <ele>249</ele>
        <time>2019-10-02T19:47:07Z</time>
      </trkpt>
      <trkpt lat="45.74085" lon="5.65042">
        <ele>250</ele>
        <time>2019-10-02T19:47:21Z</time>
      </trkpt>
      <trkpt lat="45.74172" lon="5.64997">
        <ele>258</ele>
        <time>2019-10-02T19:47:43Z</time>
      </trkpt>
      <trkpt lat="45.74242" lon="5.64983">
        <ele>264</ele>
        <time>2019-10-02T19:47:59Z</time>
      </trkpt>
      <trkpt lat="45.74277" lon="5.64982">
        <ele>264</ele>
        <time>2019-10-02T19:48:07Z</time>
      </trkpt>
      <trkpt lat="45.74291" lon="5.64973">
        <ele>265</ele>
        <time>2019-10-02T19:48:11Z</time>
      </trkpt>
      <trkpt lat="45.74299" lon="5.64935">
        <ele>271</ele>
        <time>2019-10-02T19:48:18Z</time>
      </trkpt>
      <trkpt lat="45.74305" lon="5.64924">
        <ele>273</ele>
        <time>2019-10-02T19:48:20Z</time>
      </trkpt>
      <trkpt lat="45.74327" lon="5.649">
        <ele>276</ele>
        <time>2019-10-02T19:48:26Z</time>
      </trkpt>
      <trkpt lat="45.7435" lon="5.64861">
        <ele>282</ele>
        <time>2019-10-02T19:48:35Z</time>
      </trkpt>
      <trkpt lat="45.74371" lon="5.64812">
        <ele>287</ele>
        <time>2019-10-02T19:48:44Z</time>
      </trkpt>
      <trkpt lat="45.74397" lon="5.6478">
        <ele>287</ele>
        <time>2019-10-02T19:48:52Z</time>
      </trkpt>
      <trkpt lat="45.74413" lon="5.64742">
        <ele>289</ele>
        <time>2019-10-02T19:48:59Z</time>
      </trkpt>
      <trkpt lat="45.74417" lon="5.64722">
        <ele>291</ele>
        <time>2019-10-02T19:49:03Z</time>
      </trkpt>
      <trkpt lat="45.74418" lon="5.64672">
        <ele>297</ele>
        <time>2019-10-02T19:49:11Z</time>
      </trkpt>
      <trkpt lat="45.74423" lon="5.64642">
        <ele>301</ele>
        <time>2019-10-02T19:49:16Z</time>
      </trkpt>
      <trkpt lat="45.74425" lon="5.64611">
        <ele>304</ele>
        <time>2019-10-02T19:49:21Z</time>
      </trkpt>
      <trkpt lat="45.74424" lon="5.64536">
        <ele>302</ele>
        <time>2019-10-02T19:49:33Z</time>
      </trkpt>
      <trkpt lat="45.74428" lon="5.64486">
        <ele>300</ele>
        <time>2019-10-02T19:49:41Z</time>
      </trkpt>
      <trkpt lat="45.74443" lon="5.64445">
        <ele>300</ele>
        <time>2019-10-02T19:49:49Z</time>
      </trkpt>
      <trkpt lat="45.74473" lon="5.64408">
        <ele>302</ele>
        <time>2019-10-02T19:49:58Z</time>
      </trkpt>
      <trkpt lat="45.74477" lon="5.6439">
        <ele>304</ele>
        <time>2019-10-02T19:50:01Z</time>
      </trkpt>
      <trkpt lat="45.74475" lon="5.64377">
        <ele>305</ele>
        <time>2019-10-02T19:50:03Z</time>
      </trkpt>
      <trkpt lat="45.74469" lon="5.64362">
        <ele>306</ele>
        <time>2019-10-02T19:50:06Z</time>
      </trkpt>
      <trkpt lat="45.74463" lon="5.64352">
        <ele>306</ele>
        <time>2019-10-02T19:50:08Z</time>
      </trkpt>
      <trkpt lat="45.74453" lon="5.64349">
        <ele>306</ele>
        <time>2019-10-02T19:50:11Z</time>
      </trkpt>
      <trkpt lat="45.74449" lon="5.64343">
        <ele>306</ele>
        <time>2019-10-02T19:50:12Z</time>
      </trkpt>
      <trkpt lat="45.7445" lon="5.64334">
        <ele>308</ele>
        <time>2019-10-02T19:50:13Z</time>
      </trkpt>
      <trkpt lat="45.7446" lon="5.64323">
        <ele>309</ele>
        <time>2019-10-02T19:50:16Z</time>
      </trkpt>
      <trkpt lat="45.74467" lon="5.64308">
        <ele>311</ele>
        <time>2019-10-02T19:50:19Z</time>
      </trkpt>
      <trkpt lat="45.74471" lon="5.64286">
        <ele>313</ele>
        <time>2019-10-02T19:50:23Z</time>
      </trkpt>
      <trkpt lat="45.74474" lon="5.64221">
        <ele>317</ele>
        <time>2019-10-02T19:50:34Z</time>
      </trkpt>
      <trkpt lat="45.74482" lon="5.64188">
        <ele>317</ele>
        <time>2019-10-02T19:50:39Z</time>
      </trkpt>
      <trkpt lat="45.74481" lon="5.64166">
        <ele>317</ele>
        <time>2019-10-02T19:50:43Z</time>
      </trkpt>
      <trkpt lat="45.74467" lon="5.64127">
        <ele>320</ele>
        <time>2019-10-02T19:50:50Z</time>
      </trkpt>
      <trkpt lat="45.74449" lon="5.64107">
        <ele>321</ele>
        <time>2019-10-02T19:50:55Z</time>
      </trkpt>
      <trkpt lat="45.74438" lon="5.64103">
        <ele>322</ele>
        <time>2019-10-02T19:50:58Z</time>
      </trkpt>
      <trkpt lat="45.74383" lon="5.64102">
        <ele>327</ele>
        <time>2019-10-02T19:51:11Z</time>
      </trkpt>
      <trkpt lat="45.74314" lon="5.64101">
        <ele>333</ele>
        <time>2019-10-02T19:51:27Z</time>
      </trkpt>
      <trkpt lat="45.74234" lon="5.64129">
        <ele>342</ele>
        <time>2019-10-02T19:51:46Z</time>
      </trkpt>
      <trkpt lat="45.7409" lon="5.64168">
        <ele>344</ele>
        <time>2019-10-02T19:52:21Z</time>
      </trkpt>
      <trkpt lat="45.73999" lon="5.64159">
        <ele>343</ele>
        <time>2019-10-02T19:52:42Z</time>
      </trkpt>
      <trkpt lat="45.73782" lon="5.64057">
        <ele>360</ele>
        <time>2019-10-02T19:53:35Z</time>
      </trkpt>
      <trkpt lat="45.73759" lon="5.64043">
        <ele>361</ele>
        <time>2019-10-02T19:53:41Z</time>
      </trkpt>
      <trkpt lat="45.73713" lon="5.64029">
        <ele>363</ele>
        <time>2019-10-02T19:53:52Z</time>
      </trkpt>
      <trkpt lat="45.73688" lon="5.64008">
        <ele>363</ele>
        <time>2019-10-02T19:53:59Z</time>
      </trkpt>
      <trkpt lat="45.73679" lon="5.6399">
        <ele>363</ele>
        <time>2019-10-02T19:54:02Z</time>
      </trkpt>
      <trkpt lat="45.7368" lon="5.63963">
        <ele>362</ele>
        <time>2019-10-02T19:54:07Z</time>
      </trkpt>
      <trkpt lat="45.73685" lon="5.63938">
        <ele>362</ele>
        <time>2019-10-02T19:54:11Z</time>
      </trkpt>
      <trkpt lat="45.73685" lon="5.63916">
        <ele>361</ele>
        <time>2019-10-02T19:54:15Z</time>
      </trkpt>
      <trkpt lat="45.73679" lon="5.6387">
        <ele>363</ele>
        <time>2019-10-02T19:54:22Z</time>
      </trkpt>
      <trkpt lat="45.73672" lon="5.63841">
        <ele>364</ele>
        <time>2019-10-02T19:54:27Z</time>
      </trkpt>
      <trkpt lat="45.73654" lon="5.63829">
        <ele>364</ele>
        <time>2019-10-02T19:54:32Z</time>
      </trkpt>
      <trkpt lat="45.73646" lon="5.63815">
        <ele>365</ele>
        <time>2019-10-02T19:54:35Z</time>
      </trkpt>
      <trkpt lat="45.73641" lon="5.63811">
        <ele>365</ele>
        <time>2019-10-02T19:54:36Z</time>
      </trkpt>
      <trkpt lat="45.73635" lon="5.63795">
        <ele>366</ele>
        <time>2019-10-02T19:54:39Z</time>
      </trkpt>
      <trkpt lat="45.73632" lon="5.63774">
        <ele>368</ele>
        <time>2019-10-02T19:54:43Z</time>
      </trkpt>
      <trkpt lat="45.73624" lon="5.63761">
        <ele>368</ele>
        <time>2019-10-02T19:54:45Z</time>
      </trkpt>
      <trkpt lat="45.73592" lon="5.63726">
        <ele>368</ele>
        <time>2019-10-02T19:54:55Z</time>
      </trkpt>
      <trkpt lat="45.73592" lon="5.63713">
        <ele>369</ele>
        <time>2019-10-02T19:54:57Z</time>
      </trkpt>
      <trkpt lat="45.73597" lon="5.63697">
        <ele>370</ele>
        <time>2019-10-02T19:55:00Z</time>
      </trkpt>
      <trkpt lat="45.73603" lon="5.63627">
        <ele>373</ele>
        <time>2019-10-02T19:55:11Z</time>
      </trkpt>
      <trkpt lat="45.73621" lon="5.63609">
        <ele>374</ele>
        <time>2019-10-02T19:55:16Z</time>
      </trkpt>
      <trkpt lat="45.73671" lon="5.6358">
        <ele>373</ele>
        <time>2019-10-02T19:55:29Z</time>
      </trkpt>
      <trkpt lat="45.73686" lon="5.63567">
        <ele>374</ele>
        <time>2019-10-02T19:55:33Z</time>
      </trkpt>
      <trkpt lat="45.7369" lon="5.63556">
        <ele>374</ele>
        <time>2019-10-02T19:55:35Z</time>
      </trkpt>
      <trkpt lat="45.7369" lon="5.63541">
        <ele>374</ele>
        <time>2019-10-02T19:55:38Z</time>
      </trkpt>
      <trkpt lat="45.73681" lon="5.63496">
        <ele>373</ele>
        <time>2019-10-02T19:55:45Z</time>
      </trkpt>
      <trkpt lat="45.73672" lon="5.6348">
        <ele>373</ele>
        <time>2019-10-02T19:55:49Z</time>
      </trkpt>
      <trkpt lat="45.73668" lon="5.63451">
        <ele>372</ele>
        <time>2019-10-02T19:55:53Z</time>
      </trkpt>
      <trkpt lat="45.7367" lon="5.63432">
        <ele>371</ele>
        <time>2019-10-02T19:55:56Z</time>
      </trkpt>
      <trkpt lat="45.73667" lon="5.63385">
        <ele>370</ele>
        <time>2019-10-02T19:56:04Z</time>
      </trkpt>
      <trkpt lat="45.73668" lon="5.63353">
        <ele>369</ele>
        <time>2019-10-02T19:56:09Z</time>
      </trkpt>
      <trkpt lat="45.73671" lon="5.63334">
        <ele>368</ele>
        <time>2019-10-02T19:56:13Z</time>
      </trkpt>
      <trkpt lat="45.73678" lon="5.63321">
        <ele>367</ele>
        <time>2019-10-02T19:56:15Z</time>
      </trkpt>
      <trkpt lat="45.73681" lon="5.63296">
        <ele>366</ele>
        <time>2019-10-02T19:56:19Z</time>
      </trkpt>
      <trkpt lat="45.73671" lon="5.63161">
        <ele>358</ele>
        <time>2019-10-02T19:56:42Z</time>
      </trkpt>
      <trkpt lat="45.73657" lon="5.63048">
        <ele>358</ele>
        <time>2019-10-02T19:57:00Z</time>
      </trkpt>
      <trkpt lat="45.73646" lon="5.62988">
        <ele>359</ele>
        <time>2019-10-02T19:57:10Z</time>
      </trkpt>
      <trkpt lat="45.73645" lon="5.62962">
        <ele>359</ele>
        <time>2019-10-02T19:57:15Z</time>
      </trkpt>
      <trkpt lat="45.7364" lon="5.62934">
        <ele>360</ele>
        <time>2019-10-02T19:57:19Z</time>
      </trkpt>
      <trkpt lat="45.73632" lon="5.62916">
        <ele>360</ele>
        <time>2019-10-02T19:57:23Z</time>
      </trkpt>
      <trkpt lat="45.7363" lon="5.62903">
        <ele>360</ele>
        <time>2019-10-02T19:57:25Z</time>
      </trkpt>
      <trkpt lat="45.73631" lon="5.62882">
        <ele>359</ele>
        <time>2019-10-02T19:57:28Z</time>
      </trkpt>
      <trkpt lat="45.73646" lon="5.62829">
        <ele>359</ele>
        <time>2019-10-02T19:57:38Z</time>
      </trkpt>
      <trkpt lat="45.73644" lon="5.62812">
        <ele>359</ele>
        <time>2019-10-02T19:57:41Z</time>
      </trkpt>
      <trkpt lat="45.7364" lon="5.62798">
        <ele>359</ele>
        <time>2019-10-02T19:57:43Z</time>
      </trkpt>
      <trkpt lat="45.73576" lon="5.62735">
        <ele>353</ele>
        <time>2019-10-02T19:58:01Z</time>
      </trkpt>
      <trkpt lat="45.73568" lon="5.62733">
        <ele>353</ele>
        <time>2019-10-02T19:58:03Z</time>
      </trkpt>
      <trkpt lat="45.73546" lon="5.62735">
        <ele>352</ele>
        <time>2019-10-02T19:58:08Z</time>
      </trkpt>
      <trkpt lat="45.73533" lon="5.62729">
        <ele>351</ele>
        <time>2019-10-02T19:58:11Z</time>
      </trkpt>
      <trkpt lat="45.73528" lon="5.62708">
        <ele>350</ele>
        <time>2019-10-02T19:58:15Z</time>
      </trkpt>
      <trkpt lat="45.7353" lon="5.62652">
        <ele>347</ele>
        <time>2019-10-02T19:58:24Z</time>
      </trkpt>
      <trkpt lat="45.73526" lon="5.62618">
        <ele>342</ele>
        <time>2019-10-02T19:58:30Z</time>
      </trkpt>
      <trkpt lat="45.73505" lon="5.62572">
        <ele>336</ele>
        <time>2019-10-02T19:58:39Z</time>
      </trkpt>
      <trkpt lat="45.73495" lon="5.62561">
        <ele>334</ele>
        <time>2019-10-02T19:58:42Z</time>
      </trkpt>
      <trkpt lat="45.73463" lon="5.62547">
        <ele>333</ele>
        <time>2019-10-02T19:58:49Z</time>
      </trkpt>
      <trkpt lat="45.734" lon="5.62547">
        <ele>332</ele>
        <time>2019-10-02T19:59:04Z</time>
      </trkpt>
      <trkpt lat="45.73361" lon="5.62552">
        <ele>332</ele>
        <time>2019-10-02T19:59:13Z</time>
      </trkpt>
      <trkpt lat="45.7335" lon="5.62551">
        <ele>332</ele>
        <time>2019-10-02T19:59:16Z</time>
      </trkpt>
      <trkpt lat="45.73341" lon="5.62545">
        <ele>331</ele>
        <time>2019-10-02T19:59:18Z</time>
      </trkpt>
      <trkpt lat="45.73335" lon="5.62534">
        <ele>330</ele>
        <time>2019-10-02T19:59:20Z</time>
      </trkpt>
      <trkpt lat="45.73333" lon="5.62494">
        <ele>325</ele>
        <time>2019-10-02T19:59:27Z</time>
      </trkpt>
      <trkpt lat="45.73311" lon="5.62281">
        <ele>324</ele>
        <time>2019-10-02T20:00:02Z</time>
      </trkpt>
      <trkpt lat="45.7331" lon="5.62223">
        <ele>324</ele>
        <time>2019-10-02T20:00:12Z</time>
      </trkpt>
      <trkpt lat="45.73306" lon="5.62174">
        <ele>325</ele>
        <time>2019-10-02T20:00:20Z</time>
      </trkpt>
      <trkpt lat="45.7331" lon="5.62142">
        <ele>326</ele>
        <time>2019-10-02T20:00:25Z</time>
      </trkpt>
      <trkpt lat="45.73315" lon="5.6213">
        <ele>327</ele>
        <time>2019-10-02T20:00:27Z</time>
      </trkpt>
      <trkpt lat="45.7332" lon="5.62123">
        <ele>327</ele>
        <time>2019-10-02T20:00:29Z</time>
      </trkpt>
      <trkpt lat="45.73355" lon="5.6211">
        <ele>329</ele>
        <time>2019-10-02T20:00:37Z</time>
      </trkpt>
      <trkpt lat="45.73362" lon="5.62096">
        <ele>330</ele>
        <time>2019-10-02T20:00:40Z</time>
      </trkpt>
      <trkpt lat="45.73369" lon="5.62052">
        <ele>333</ele>
        <time>2019-10-02T20:00:47Z</time>
      </trkpt>
      <trkpt lat="45.73392" lon="5.62037">
        <ele>335</ele>
        <time>2019-10-02T20:00:53Z</time>
      </trkpt>
      <trkpt lat="45.73404" lon="5.62015">
        <ele>337</ele>
        <time>2019-10-02T20:00:58Z</time>
      </trkpt>
      <trkpt lat="45.73418" lon="5.61997">
        <ele>339</ele>
        <time>2019-10-02T20:01:02Z</time>
      </trkpt>
      <trkpt lat="45.73441" lon="5.61974">
        <ele>340</ele>
        <time>2019-10-02T20:01:09Z</time>
      </trkpt>
      <trkpt lat="45.73445" lon="5.6196">
        <ele>341</ele>
        <time>2019-10-02T20:01:11Z</time>
      </trkpt>
      <trkpt lat="45.7346" lon="5.61954">
        <ele>341</ele>
        <time>2019-10-02T20:01:15Z</time>
      </trkpt>
      <trkpt lat="45.73556" lon="5.61885">
        <ele>348</ele>
        <time>2019-10-02T20:01:40Z</time>
      </trkpt>
      <trkpt lat="45.73576" lon="5.6186">
        <ele>348</ele>
        <time>2019-10-02T20:01:46Z</time>
      </trkpt>
      <trkpt lat="45.73588" lon="5.61861">
        <ele>348</ele>
        <time>2019-10-02T20:01:49Z</time>
      </trkpt>
      <trkpt lat="45.73634" lon="5.61856">
        <ele>347</ele>
        <time>2019-10-02T20:02:00Z</time>
      </trkpt>
      <trkpt lat="45.73695" lon="5.61854">
        <ele>346</ele>
        <time>2019-10-02T20:02:14Z</time>
      </trkpt>
      <trkpt lat="45.73707" lon="5.61855">
        <ele>345</ele>
        <time>2019-10-02T20:02:17Z</time>
      </trkpt>
      <trkpt lat="45.73736" lon="5.61865">
        <ele>344</ele>
        <time>2019-10-02T20:02:24Z</time>
      </trkpt>
      <trkpt lat="45.73745" lon="5.61865">
        <ele>344</ele>
        <time>2019-10-02T20:02:26Z</time>
      </trkpt>
      <trkpt lat="45.73757" lon="5.61864">
        <ele>343</ele>
        <time>2019-10-02T20:02:29Z</time>
      </trkpt>
      <trkpt lat="45.73775" lon="5.61856">
        <ele>343</ele>
        <time>2019-10-02T20:02:33Z</time>
      </trkpt>
      <trkpt lat="45.73794" lon="5.61852">
        <ele>342</ele>
        <time>2019-10-02T20:02:38Z</time>
      </trkpt>
      <trkpt lat="45.7385" lon="5.61866">
        <ele>341</ele>
        <time>2019-10-02T20:02:51Z</time>
      </trkpt>
      <trkpt lat="45.73892" lon="5.61871">
        <ele>342</ele>
        <time>2019-10-02T20:03:01Z</time>
      </trkpt>
      <trkpt lat="45.73984" lon="5.61868">
        <ele>352</ele>
        <time>2019-10-02T20:03:22Z</time>
      </trkpt>
      <trkpt lat="45.74059" lon="5.61881">
        <ele>358</ele>
        <time>2019-10-02T20:03:40Z</time>
      </trkpt>
      <trkpt lat="45.74108" lon="5.61881">
        <ele>360</ele>
        <time>2019-10-02T20:03:51Z</time>
      </trkpt>
      <trkpt lat="45.74144" lon="5.61889">
        <ele>362</ele>
        <time>2019-10-02T20:04:00Z</time>
      </trkpt>
      <trkpt lat="45.74153" lon="5.61897">
        <ele>362</ele>
        <time>2019-10-02T20:04:02Z</time>
      </trkpt>
      <trkpt lat="45.74164" lon="5.61902">
        <ele>362</ele>
        <time>2019-10-02T20:04:05Z</time>
      </trkpt>
      <trkpt lat="45.74186" lon="5.61908">
        <ele>362</ele>
        <time>2019-10-02T20:04:10Z</time>
      </trkpt>
      <trkpt lat="45.74298" lon="5.61914">
        <ele>363</ele>
        <time>2019-10-02T20:04:36Z</time>
      </trkpt>
      <trkpt lat="45.74325" lon="5.61918">
        <ele>363</ele>
        <time>2019-10-02T20:04:43Z</time>
      </trkpt>
      <trkpt lat="45.74359" lon="5.61927">
        <ele>362</ele>
        <time>2019-10-02T20:04:51Z</time>
      </trkpt>
      <trkpt lat="45.74415" lon="5.61924">
        <ele>365</ele>
        <time>2019-10-02T20:05:04Z</time>
      </trkpt>
      <trkpt lat="45.74446" lon="5.61928">
        <ele>366</ele>
        <time>2019-10-02T20:05:11Z</time>
      </trkpt>
      <trkpt lat="45.74538" lon="5.61921">
        <ele>372</ele>
        <time>2019-10-02T20:05:33Z</time>
      </trkpt>
      <trkpt lat="45.74568" lon="5.61924">
        <ele>373</ele>
        <time>2019-10-02T20:05:40Z</time>
      </trkpt>
      <trkpt lat="45.74644" lon="5.61924">
        <ele>373</ele>
        <time>2019-10-02T20:05:57Z</time>
      </trkpt>
      <trkpt lat="45.74667" lon="5.61939">
        <ele>372</ele>
        <time>2019-10-02T20:06:03Z</time>
      </trkpt>
      <trkpt lat="45.74681" lon="5.61942">
        <ele>372</ele>
        <time>2019-10-02T20:06:07Z</time>
      </trkpt>
      <trkpt lat="45.74695" lon="5.61943">
        <ele>372</ele>
        <time>2019-10-02T20:06:10Z</time>
      </trkpt>
      <trkpt lat="45.74727" lon="5.61935">
        <ele>372</ele>
        <time>2019-10-02T20:06:17Z</time>
      </trkpt>
      <trkpt lat="45.74748" lon="5.61936">
        <ele>372</ele>
        <time>2019-10-02T20:06:22Z</time>
      </trkpt>
      <trkpt lat="45.74804" lon="5.61953">
        <ele>373</ele>
        <time>2019-10-02T20:06:36Z</time>
      </trkpt>
      <trkpt lat="45.7482" lon="5.61956">
        <ele>373</ele>
        <time>2019-10-02T20:06:40Z</time>
      </trkpt>
      <trkpt lat="45.74837" lon="5.61955">
        <ele>374</ele>
        <time>2019-10-02T20:06:44Z</time>
      </trkpt>
      <trkpt lat="45.74862" lon="5.61947">
        <ele>374</ele>
        <time>2019-10-02T20:06:49Z</time>
      </trkpt>
      <trkpt lat="45.74918" lon="5.61942">
        <ele>375</ele>
        <time>2019-10-02T20:07:03Z</time>
      </trkpt>
      <trkpt lat="45.74944" lon="5.61936">
        <ele>376</ele>
        <time>2019-10-02T20:07:09Z</time>
      </trkpt>
      <trkpt lat="45.74969" lon="5.61921">
        <ele>378</ele>
        <time>2019-10-02T20:07:15Z</time>
      </trkpt>
      <trkpt lat="45.74969" lon="5.61908">
        <ele>378</ele>
        <time>2019-10-02T20:07:17Z</time>
      </trkpt>
      <trkpt lat="45.74984" lon="5.61893">
        <ele>378</ele>
        <time>2019-10-02T20:07:21Z</time>
      </trkpt>
      <trkpt lat="45.75001" lon="5.61899">
        <ele>379</ele>
        <time>2019-10-02T20:07:26Z</time>
      </trkpt>
      <trkpt lat="45.75019" lon="5.61902">
        <ele>379</ele>
        <time>2019-10-02T20:07:30Z</time>
      </trkpt>
      <trkpt lat="45.75028" lon="5.61897">
        <ele>379</ele>
        <time>2019-10-02T20:07:32Z</time>
      </trkpt>
      <trkpt lat="45.75033" lon="5.61882">
        <ele>379</ele>
        <time>2019-10-02T20:07:35Z</time>
      </trkpt>
      <trkpt lat="45.75067" lon="5.61873">
        <ele>380</ele>
        <time>2019-10-02T20:07:43Z</time>
      </trkpt>
      <trkpt lat="45.75145" lon="5.61876">
        <ele>382</ele>
        <time>2019-10-02T20:08:01Z</time>
      </trkpt>
      <trkpt lat="45.75191" lon="5.61885">
        <ele>382</ele>
        <time>2019-10-02T20:08:12Z</time>
      </trkpt>
      <trkpt lat="45.75199" lon="5.61873">
        <ele>383</ele>
        <time>2019-10-02T20:08:15Z</time>
      </trkpt>
      <trkpt lat="45.7522" lon="5.61866">
        <ele>383</ele>
        <time>2019-10-02T20:08:20Z</time>
      </trkpt>
      <trkpt lat="45.75228" lon="5.61859">
        <ele>383</ele>
        <time>2019-10-02T20:08:22Z</time>
      </trkpt>
      <trkpt lat="45.75246" lon="5.61857">
        <ele>383</ele>
        <time>2019-10-02T20:08:26Z</time>
      </trkpt>
      <trkpt lat="45.75307" lon="5.6179">
        <ele>384</ele>
        <time>2019-10-02T20:08:44Z</time>
      </trkpt>
      <trkpt lat="45.75355" lon="5.61745">
        <ele>384</ele>
        <time>2019-10-02T20:08:57Z</time>
      </trkpt>
      <trkpt lat="45.7537" lon="5.61741">
        <ele>384</ele>
        <time>2019-10-02T20:09:01Z</time>
      </trkpt>
      <trkpt lat="45.75467" lon="5.61697">
        <ele>384</ele>
        <time>2019-10-02T20:09:25Z</time>
      </trkpt>
      <trkpt lat="45.75501" lon="5.617">
        <ele>385</ele>
        <time>2019-10-02T20:09:33Z</time>
      </trkpt>
      <trkpt lat="45.75517" lon="5.61707">
        <ele>386</ele>
        <time>2019-10-02T20:09:37Z</time>
      </trkpt>
      <trkpt lat="45.75573" lon="5.61702">
        <ele>385</ele>
        <time>2019-10-02T20:09:50Z</time>
      </trkpt>
      <trkpt lat="45.75618" lon="5.61684">
        <ele>384</ele>
        <time>2019-10-02T20:10:01Z</time>
      </trkpt>
      <trkpt lat="45.75633" lon="5.61671">
        <ele>384</ele>
        <time>2019-10-02T20:10:05Z</time>
      </trkpt>
      <trkpt lat="45.75655" lon="5.61665">
        <ele>383</ele>
        <time>2019-10-02T20:10:10Z</time>
      </trkpt>
      <trkpt lat="45.75671" lon="5.61647">
        <ele>381</ele>
        <time>2019-10-02T20:10:15Z</time>
      </trkpt>
      <trkpt lat="45.75703" lon="5.61635">
        <ele>379</ele>
        <time>2019-10-02T20:10:22Z</time>
      </trkpt>
      <trkpt lat="45.75708" lon="5.61628">
        <ele>378</ele>
        <time>2019-10-02T20:10:24Z</time>
      </trkpt>
      <trkpt lat="45.75715" lon="5.61632">
        <ele>378</ele>
        <time>2019-10-02T20:10:26Z</time>
      </trkpt>
      <trkpt lat="45.75729" lon="5.61651">
        <ele>381</ele>
        <time>2019-10-02T20:10:30Z</time>
      </trkpt>
      <trkpt lat="45.75739" lon="5.61659">
        <ele>381</ele>
        <time>2019-10-02T20:10:33Z</time>
      </trkpt>
      <trkpt lat="45.75754" lon="5.61665">
        <ele>382</ele>
        <time>2019-10-02T20:10:37Z</time>
      </trkpt>
      <trkpt lat="45.75774" lon="5.61666">
        <ele>383</ele>
        <time>2019-10-02T20:10:41Z</time>
      </trkpt>
      <trkpt lat="45.75777" lon="5.61765">
        <ele>388</ele>
        <time>2019-10-02T20:10:57Z</time>
      </trkpt>
      <trkpt lat="45.75772" lon="5.618">
        <ele>386</ele>
        <time>2019-10-02T20:11:03Z</time>
      </trkpt>
      <trkpt lat="45.75757" lon="5.61827">
        <ele>384</ele>
        <time>2019-10-02T20:11:09Z</time>
      </trkpt>
      <trkpt lat="45.75734" lon="5.61859">
        <ele>381</ele>
        <time>2019-10-02T20:11:16Z</time>
      </trkpt>
      <trkpt lat="45.75728" lon="5.6187">
        <ele>379</ele>
        <time>2019-10-02T20:11:19Z</time>
      </trkpt>
      <trkpt lat="45.75727" lon="5.6188">
        <ele>378</ele>
        <time>2019-10-02T20:11:20Z</time>
      </trkpt>
      <trkpt lat="45.75734" lon="5.61888">
        <ele>376</ele>
        <time>2019-10-02T20:11:22Z</time>
      </trkpt>
      <trkpt lat="45.75806" lon="5.61911">
        <ele>372</ele>
        <time>2019-10-02T20:11:40Z</time>
      </trkpt>
      <trkpt lat="45.75832" lon="5.61926">
        <ele>370</ele>
        <time>2019-10-02T20:11:46Z</time>
      </trkpt>
      <trkpt lat="45.75839" lon="5.61937">
        <ele>368</ele>
        <time>2019-10-02T20:11:49Z</time>
      </trkpt>
      <trkpt lat="45.7584" lon="5.61949">
        <ele>366</ele>
        <time>2019-10-02T20:11:50Z</time>
      </trkpt>
      <trkpt lat="45.75834" lon="5.62027">
        <ele>355</ele>
        <time>2019-10-02T20:12:03Z</time>
      </trkpt>
      <trkpt lat="45.75883" lon="5.62046">
        <ele>354</ele>
        <time>2019-10-02T20:12:15Z</time>
      </trkpt>
      <trkpt lat="45.75941" lon="5.62134">
        <ele>347</ele>
        <time>2019-10-02T20:12:35Z</time>
      </trkpt>
      <trkpt lat="45.75958" lon="5.62169">
        <ele>346</ele>
        <time>2019-10-02T20:12:42Z</time>
      </trkpt>
      <trkpt lat="45.75967" lon="5.62209">
        <ele>345</ele>
        <time>2019-10-02T20:12:49Z</time>
      </trkpt>
      <trkpt lat="45.75943" lon="5.62208">
        <ele>345</ele>
        <time>2019-10-02T20:12:54Z</time>
      </trkpt>
      <trkpt lat="45.75896" lon="5.62211">
        <ele>344</ele>
        <time>2019-10-02T20:13:05Z</time>
      </trkpt>
      <trkpt lat="45.75857" lon="5.62223">
        <ele>344</ele>
        <time>2019-10-02T20:13:15Z</time>
      </trkpt>
      <trkpt lat="45.75793" lon="5.62232">
        <ele>343</ele>
        <time>2019-10-02T20:13:30Z</time>
      </trkpt>
      <trkpt lat="45.75722" lon="5.62237">
        <ele>343</ele>
        <time>2019-10-02T20:13:46Z</time>
      </trkpt>
      <trkpt lat="45.75631" lon="5.62237">
        <ele>341</ele>
        <time>2019-10-02T20:14:07Z</time>
      </trkpt>
      <trkpt lat="45.75633" lon="5.62482">
        <ele>350</ele>
        <time>2019-10-02T20:14:47Z</time>
      </trkpt>
      <trkpt lat="45.75679" lon="5.62479">
        <ele>350</ele>
        <time>2019-10-02T20:14:58Z</time>
      </trkpt>
      <trkpt lat="45.75705" lon="5.62473">
        <ele>350</ele>
        <time>2019-10-02T20:15:04Z</time>
      </trkpt>
      <trkpt lat="45.7573" lon="5.62473">
        <ele>351</ele>
        <time>2019-10-02T20:15:10Z</time>
      </trkpt>
      <trkpt lat="45.75804" lon="5.6249">
        <ele>355</ele>
        <time>2019-10-02T20:15:28Z</time>
      </trkpt>
      <trkpt lat="45.75825" lon="5.62491">
        <ele>355</ele>
        <time>2019-10-02T20:15:33Z</time>
      </trkpt>
      <trkpt lat="45.75867" lon="5.62505">
        <ele>355</ele>
        <time>2019-10-02T20:15:43Z</time>
      </trkpt>
      <trkpt lat="45.75895" lon="5.62518">
        <ele>354</ele>
        <time>2019-10-02T20:15:49Z</time>
      </trkpt>
      <trkpt lat="45.75938" lon="5.62528">
        <ele>353</ele>
        <time>2019-10-02T20:16:00Z</time>
      </trkpt>
      <trkpt lat="45.76007" lon="5.62535">
        <ele>351</ele>
        <time>2019-10-02T20:16:16Z</time>
      </trkpt>
      <trkpt lat="45.76023" lon="5.62543">
        <ele>352</ele>
        <time>2019-10-02T20:16:20Z</time>
      </trkpt>
      <trkpt lat="45.76072" lon="5.6259">
        <ele>353</ele>
        <time>2019-10-02T20:16:34Z</time>
      </trkpt>
      <trkpt lat="45.76084" lon="5.62607">
        <ele>353</ele>
        <time>2019-10-02T20:16:37Z</time>
      </trkpt>
      <trkpt lat="45.76093" lon="5.62629">
        <ele>354</ele>
        <time>2019-10-02T20:16:42Z</time>
      </trkpt>
      <trkpt lat="45.76075" lon="5.62607">
        <ele>354</ele>
        <time>2019-10-02T20:16:47Z</time>
      </trkpt>
      <trkpt lat="45.76055" lon="5.62595">
        <ele>354</ele>
        <time>2019-10-02T20:16:52Z</time>
      </trkpt>
      <trkpt lat="45.76028" lon="5.62572">
        <ele>354</ele>
        <time>2019-10-02T20:17:00Z</time>
      </trkpt>
      <trkpt lat="45.76015" lon="5.62568">
        <ele>355</ele>
        <time>2019-10-02T20:17:03Z</time>
      </trkpt>
      <trkpt lat="45.75966" lon="5.62561">
        <ele>357</ele>
        <time>2019-10-02T20:17:14Z</time>
      </trkpt>
      <trkpt lat="45.75944" lon="5.62562">
        <ele>359</ele>
        <time>2019-10-02T20:17:19Z</time>
      </trkpt>
      <trkpt lat="45.75916" lon="5.62582">
        <ele>364</ele>
        <time>2019-10-02T20:17:27Z</time>
      </trkpt>
      <trkpt lat="45.75815" lon="5.62557">
        <ele>365</ele>
        <time>2019-10-02T20:17:51Z</time>
      </trkpt>
      <trkpt lat="45.75778" lon="5.62555">
        <ele>364</ele>
        <time>2019-10-02T20:17:59Z</time>
      </trkpt>
      <trkpt lat="45.7574" lon="5.62563">
        <ele>365</ele>
        <time>2019-10-02T20:18:08Z</time>
      </trkpt>
      <trkpt lat="45.75705" lon="5.62586">
        <ele>365</ele>
        <time>2019-10-02T20:18:17Z</time>
      </trkpt>
      <trkpt lat="45.75662" lon="5.62608">
        <ele>366</ele>
        <time>2019-10-02T20:18:28Z</time>
      </trkpt>
      <trkpt lat="45.75649" lon="5.62617">
        <ele>368</ele>
        <time>2019-10-02T20:18:31Z</time>
      </trkpt>
      <trkpt lat="45.75634" lon="5.62623">
        <ele>369</ele>
        <time>2019-10-02T20:18:35Z</time>
      </trkpt>
      <trkpt lat="45.756" lon="5.62634">
        <ele>371</ele>
        <time>2019-10-02T20:18:43Z</time>
      </trkpt>
      <trkpt lat="45.7556" lon="5.62643">
        <ele>375</ele>
        <time>2019-10-02T20:18:52Z</time>
      </trkpt>
      <trkpt lat="45.75531" lon="5.62645">
        <ele>378</ele>
        <time>2019-10-02T20:18:59Z</time>
      </trkpt>
      <trkpt lat="45.75505" lon="5.62641">
        <ele>379</ele>
        <time>2019-10-02T20:19:05Z</time>
      </trkpt>
      <trkpt lat="45.75481" lon="5.62641">
        <ele>379</ele>
        <time>2019-10-02T20:19:11Z</time>
      </trkpt>
      <trkpt lat="45.75465" lon="5.62648">
        <ele>380</ele>
        <time>2019-10-02T20:19:15Z</time>
      </trkpt>
      <trkpt lat="45.75418" lon="5.6268">
        <ele>382</ele>
        <time>2019-10-02T20:19:27Z</time>
      </trkpt>
      <trkpt lat="45.75366" lon="5.62707">
        <ele>384</ele>
        <time>2019-10-02T20:19:40Z</time>
      </trkpt>
      <trkpt lat="45.75315" lon="5.62726">
        <ele>384</ele>
        <time>2019-10-02T20:19:52Z</time>
      </trkpt>
      <trkpt lat="45.75258" lon="5.62735">
        <ele>384</ele>
        <time>2019-10-02T20:20:06Z</time>
      </trkpt>
      <trkpt lat="45.75241" lon="5.6273">
        <ele>383</ele>
        <time>2019-10-02T20:20:10Z</time>
      </trkpt>
      <trkpt lat="45.75237" lon="5.62741">
        <ele>383</ele>
        <time>2019-10-02T20:20:12Z</time>
      </trkpt>
      <trkpt lat="45.75257" lon="5.62816">
        <ele>389</ele>
        <time>2019-10-02T20:20:25Z</time>
      </trkpt>
      <trkpt lat="45.75255" lon="5.62871">
        <ele>390</ele>
        <time>2019-10-02T20:20:34Z</time>
      </trkpt>
      <trkpt lat="45.75257" lon="5.629">
        <ele>391</ele>
        <time>2019-10-02T20:20:38Z</time>
      </trkpt>
      <trkpt lat="45.75262" lon="5.62918">
        <ele>391</ele>
        <time>2019-10-02T20:20:42Z</time>
      </trkpt>
      <trkpt lat="45.7527" lon="5.62931">
        <ele>391</ele>
        <time>2019-10-02T20:20:44Z</time>
      </trkpt>
      <trkpt lat="45.75284" lon="5.62964">
        <ele>392</ele>
        <time>2019-10-02T20:20:51Z</time>
      </trkpt>
      <trkpt lat="45.75305" lon="5.63021">
        <ele>393</ele>
        <time>2019-10-02T20:21:01Z</time>
      </trkpt>
      <trkpt lat="45.75307" lon="5.63037">
        <ele>393</ele>
        <time>2019-10-02T20:21:04Z</time>
      </trkpt>
      <trkpt lat="45.75302" lon="5.63071">
        <ele>394</ele>
        <time>2019-10-02T20:21:10Z</time>
      </trkpt>
      <trkpt lat="45.75303" lon="5.63084">
        <ele>394</ele>
        <time>2019-10-02T20:21:12Z</time>
      </trkpt>
      <trkpt lat="45.75309" lon="5.63097">
        <ele>395</ele>
        <time>2019-10-02T20:21:14Z</time>
      </trkpt>
      <trkpt lat="45.75309" lon="5.63109">
        <ele>395</ele>
        <time>2019-10-02T20:21:16Z</time>
      </trkpt>
      <trkpt lat="45.75303" lon="5.63135">
        <ele>395</ele>
        <time>2019-10-02T20:21:21Z</time>
      </trkpt>
      <trkpt lat="45.75302" lon="5.63152">
        <ele>396</ele>
        <time>2019-10-02T20:21:23Z</time>
      </trkpt>
      <trkpt lat="45.75303" lon="5.63165">
        <ele>396</ele>
        <time>2019-10-02T20:21:26Z</time>
      </trkpt>
      <trkpt lat="45.75314" lon="5.63192">
        <ele>398</ele>
        <time>2019-10-02T20:21:31Z</time>
      </trkpt>
      <trkpt lat="45.75313" lon="5.63234">
        <ele>400</ele>
        <time>2019-10-02T20:21:37Z</time>
      </trkpt>
      <trkpt lat="45.75323" lon="5.63255">
        <ele>401</ele>
        <time>2019-10-02T20:21:42Z</time>
      </trkpt>
      <trkpt lat="45.75345" lon="5.63271">
        <ele>400</ele>
        <time>2019-10-02T20:21:47Z</time>
      </trkpt>
      <trkpt lat="45.75379" lon="5.63304">
        <ele>397</ele>
        <time>2019-10-02T20:21:57Z</time>
      </trkpt>
      <trkpt lat="45.75407" lon="5.63342">
        <ele>394</ele>
        <time>2019-10-02T20:22:06Z</time>
      </trkpt>
      <trkpt lat="45.75416" lon="5.63365">
        <ele>392</ele>
        <time>2019-10-02T20:22:10Z</time>
      </trkpt>
      <trkpt lat="45.75424" lon="5.63404">
        <ele>391</ele>
        <time>2019-10-02T20:22:17Z</time>
      </trkpt>
      <trkpt lat="45.75425" lon="5.63416">
        <ele>390</ele>
        <time>2019-10-02T20:22:19Z</time>
      </trkpt>
      <trkpt lat="45.75422" lon="5.63431">
        <ele>389</ele>
        <time>2019-10-02T20:22:21Z</time>
      </trkpt>
      <trkpt lat="45.75418" lon="5.63441">
        <ele>388</ele>
        <time>2019-10-02T20:22:23Z</time>
      </trkpt>
      <trkpt lat="45.75409" lon="5.63452">
        <ele>387</ele>
        <time>2019-10-02T20:22:26Z</time>
      </trkpt>
      <trkpt lat="45.75402" lon="5.63458">
        <ele>387</ele>
        <time>2019-10-02T20:22:28Z</time>
      </trkpt>
      <trkpt lat="45.75392" lon="5.6346">
        <ele>387</ele>
        <time>2019-10-02T20:22:30Z</time>
      </trkpt>
      <trkpt lat="45.75378" lon="5.63461">
        <ele>387</ele>
        <time>2019-10-02T20:22:34Z</time>
      </trkpt>
      <trkpt lat="45.75368" lon="5.63458">
        <ele>387</ele>
        <time>2019-10-02T20:22:36Z</time>
      </trkpt>
      <trkpt lat="45.75349" lon="5.63468">
        <ele>386</ele>
        <time>2019-10-02T20:22:41Z</time>
      </trkpt>
      <trkpt lat="45.75341" lon="5.63478">
        <ele>384</ele>
        <time>2019-10-02T20:22:43Z</time>
      </trkpt>
      <trkpt lat="45.75368" lon="5.63501">
        <ele>380</ele>
        <time>2019-10-02T20:22:50Z</time>
      </trkpt>
      <trkpt lat="45.7539" lon="5.63515">
        <ele>378</ele>
        <time>2019-10-02T20:22:56Z</time>
      </trkpt>
      <trkpt lat="45.75399" lon="5.63526">
        <ele>377</ele>
        <time>2019-10-02T20:22:59Z</time>
      </trkpt>
      <trkpt lat="45.7543" lon="5.63595">
        <ele>366</ele>
        <time>2019-10-02T20:23:12Z</time>
      </trkpt>
      <trkpt lat="45.75446" lon="5.63616">
        <ele>364</ele>
        <time>2019-10-02T20:23:17Z</time>
      </trkpt>
      <trkpt lat="45.755" lon="5.63653">
        <ele>360</ele>
        <time>2019-10-02T20:23:31Z</time>
      </trkpt>
      <trkpt lat="45.75543" lon="5.63687">
        <ele>356</ele>
        <time>2019-10-02T20:23:43Z</time>
      </trkpt>
      <trkpt lat="45.75565" lon="5.63724">
        <ele>353</ele>
        <time>2019-10-02T20:23:51Z</time>
      </trkpt>
      <trkpt lat="45.75579" lon="5.63757">
        <ele>351</ele>
        <time>2019-10-02T20:23:57Z</time>
      </trkpt>
      <trkpt lat="45.75578" lon="5.63764">
        <ele>351</ele>
        <time>2019-10-02T20:23:58Z</time>
      </trkpt>
      <trkpt lat="45.75538" lon="5.63803">
        <ele>352</ele>
        <time>2019-10-02T20:24:09Z</time>
      </trkpt>
      <trkpt lat="45.75491" lon="5.6384">
        <ele>352</ele>
        <time>2019-10-02T20:24:22Z</time>
      </trkpt>
      <trkpt lat="45.75475" lon="5.63911">
        <ele>356</ele>
        <time>2019-10-02T20:24:34Z</time>
      </trkpt>
      <trkpt lat="45.75462" lon="5.63915">
        <ele>356</ele>
        <time>2019-10-02T20:24:37Z</time>
      </trkpt>
      <trkpt lat="45.75447" lon="5.63934">
        <ele>357</ele>
        <time>2019-10-02T20:24:42Z</time>
      </trkpt>
      <trkpt lat="45.75441" lon="5.63954">
        <ele>358</ele>
        <time>2019-10-02T20:24:45Z</time>
      </trkpt>
      <trkpt lat="45.75438" lon="5.64045">
        <ele>360</ele>
        <time>2019-10-02T20:25:00Z</time>
      </trkpt>
      <trkpt lat="45.75455" lon="5.64055">
        <ele>361</ele>
        <time>2019-10-02T20:25:05Z</time>
      </trkpt>
      <trkpt lat="45.75477" lon="5.64058">
        <ele>361</ele>
        <time>2019-10-02T20:25:10Z</time>
      </trkpt>
      <trkpt lat="45.75511" lon="5.64047">
        <ele>363</ele>
        <time>2019-10-02T20:25:18Z</time>
      </trkpt>
      <trkpt lat="45.75528" lon="5.64046">
        <ele>366</ele>
        <time>2019-10-02T20:25:22Z</time>
      </trkpt>
      <trkpt lat="45.75537" lon="5.64052">
        <ele>367</ele>
        <time>2019-10-02T20:25:24Z</time>
      </trkpt>
      <trkpt lat="45.75549" lon="5.64065">
        <ele>368</ele>
        <time>2019-10-02T20:25:28Z</time>
      </trkpt>
      <trkpt lat="45.75567" lon="5.64073">
        <ele>371</ele>
        <time>2019-10-02T20:25:32Z</time>
      </trkpt>
      <trkpt lat="45.75669" lon="5.64181">
        <ele>360</ele>
        <time>2019-10-02T20:26:02Z</time>
      </trkpt>
      <trkpt lat="45.75802" lon="5.64269">
        <ele>340</ele>
        <time>2019-10-02T20:26:36Z</time>
      </trkpt>
      <trkpt lat="45.7584" lon="5.64287">
        <ele>337</ele>
        <time>2019-10-02T20:26:45Z</time>
      </trkpt>
      <trkpt lat="45.76042" lon="5.64332">
        <ele>326</ele>
        <time>2019-10-02T20:27:33Z</time>
      </trkpt>
      <trkpt lat="45.76061" lon="5.64334">
        <ele>325</ele>
        <time>2019-10-02T20:27:37Z</time>
      </trkpt>
      <trkpt lat="45.76099" lon="5.64345">
        <ele>324</ele>
        <time>2019-10-02T20:27:46Z</time>
      </trkpt>
      <trkpt lat="45.76123" lon="5.64343">
        <ele>324</ele>
        <time>2019-10-02T20:27:52Z</time>
      </trkpt>
      <trkpt lat="45.76136" lon="5.64345">
        <ele>324</ele>
        <time>2019-10-02T20:27:55Z</time>
      </trkpt>
      <trkpt lat="45.76173" lon="5.64359">
        <ele>323</ele>
        <time>2019-10-02T20:28:04Z</time>
      </trkpt>
      <trkpt lat="45.76228" lon="5.6439">
        <ele>324</ele>
        <time>2019-10-02T20:28:18Z</time>
      </trkpt>
      <trkpt lat="45.76263" lon="5.64405">
        <ele>325</ele>
        <time>2019-10-02T20:28:26Z</time>
      </trkpt>
      <trkpt lat="45.76262" lon="5.64425">
        <ele>325</ele>
        <time>2019-10-02T20:28:30Z</time>
      </trkpt>
      <trkpt lat="45.76264" lon="5.64443">
        <ele>326</ele>
        <time>2019-10-02T20:28:33Z</time>
      </trkpt>
      <trkpt lat="45.7627" lon="5.64459">
        <ele>325</ele>
        <time>2019-10-02T20:28:36Z</time>
      </trkpt>
      <trkpt lat="45.76286" lon="5.64481">
        <ele>325</ele>
        <time>2019-10-02T20:28:41Z</time>
      </trkpt>
      <trkpt lat="45.76298" lon="5.6449">
        <ele>325</ele>
        <time>2019-10-02T20:28:44Z</time>
      </trkpt>
      <trkpt lat="45.76319" lon="5.64497">
        <ele>324</ele>
        <time>2019-10-02T20:28:49Z</time>
      </trkpt>
      <trkpt lat="45.76383" lon="5.64663">
        <ele>310</ele>
        <time>2019-10-02T20:29:20Z</time>
      </trkpt>
      <trkpt lat="45.76384" lon="5.64676">
        <ele>308</ele>
        <time>2019-10-02T20:29:22Z</time>
      </trkpt>
      <trkpt lat="45.76381" lon="5.64688">
        <ele>306</ele>
        <time>2019-10-02T20:29:24Z</time>
      </trkpt>
      <trkpt lat="45.76374" lon="5.64698">
        <ele>306</ele>
        <time>2019-10-02T20:29:26Z</time>
      </trkpt>
      <trkpt lat="45.76344" lon="5.64729">
        <ele>305</ele>
        <time>2019-10-02T20:29:35Z</time>
      </trkpt>
      <trkpt lat="45.76337" lon="5.64741">
        <ele>304</ele>
        <time>2019-10-02T20:29:38Z</time>
      </trkpt>
      <trkpt lat="45.76311" lon="5.64771">
        <ele>303</ele>
        <time>2019-10-02T20:29:45Z</time>
      </trkpt>
      <trkpt lat="45.76306" lon="5.64787">
        <ele>300</ele>
        <time>2019-10-02T20:29:48Z</time>
      </trkpt>
      <trkpt lat="45.76312" lon="5.64798">
        <ele>297</ele>
        <time>2019-10-02T20:29:51Z</time>
      </trkpt>
      <trkpt lat="45.7632" lon="5.64798">
        <ele>296</ele>
        <time>2019-10-02T20:29:52Z</time>
      </trkpt>
      <trkpt lat="45.76349" lon="5.64783">
        <ele>295</ele>
        <time>2019-10-02T20:30:00Z</time>
      </trkpt>
      <trkpt lat="45.76341" lon="5.6482">
        <ele>289</ele>
        <time>2019-10-02T20:30:06Z</time>
      </trkpt>
      <trkpt lat="45.76329" lon="5.64842">
        <ele>287</ele>
        <time>2019-10-02T20:30:10Z</time>
      </trkpt>
      <trkpt lat="45.76287" lon="5.64865">
        <ele>288</ele>
        <time>2019-10-02T20:30:21Z</time>
      </trkpt>
      <trkpt lat="45.76226" lon="5.64905">
        <ele>286</ele>
        <time>2019-10-02T20:30:37Z</time>
      </trkpt>
      <trkpt lat="45.76211" lon="5.64922">
        <ele>285</ele>
        <time>2019-10-02T20:30:41Z</time>
      </trkpt>
      <trkpt lat="45.76203" lon="5.64943">
        <ele>284</ele>
        <time>2019-10-02T20:30:45Z</time>
      </trkpt>
      <trkpt lat="45.76201" lon="5.64967">
        <ele>281</ele>
        <time>2019-10-02T20:30:49Z</time>
      </trkpt>
      <trkpt lat="45.76204" lon="5.64992">
        <ele>279</ele>
        <time>2019-10-02T20:30:53Z</time>
      </trkpt>
      <trkpt lat="45.76211" lon="5.65017">
        <ele>277</ele>
        <time>2019-10-02T20:30:57Z</time>
      </trkpt>
      <trkpt lat="45.76211" lon="5.65038">
        <ele>275</ele>
        <time>2019-10-02T20:31:01Z</time>
      </trkpt>
      <trkpt lat="45.76188" lon="5.65096">
        <ele>268</ele>
        <time>2019-10-02T20:31:12Z</time>
      </trkpt>
      <trkpt lat="45.76184" lon="5.65169">
        <ele>263</ele>
        <time>2019-10-02T20:31:24Z</time>
      </trkpt>
      <trkpt lat="45.76187" lon="5.65189">
        <ele>262</ele>
        <time>2019-10-02T20:31:27Z</time>
      </trkpt>
      <trkpt lat="45.76202" lon="5.65215">
        <ele>260</ele>
        <time>2019-10-02T20:31:32Z</time>
      </trkpt>
      <trkpt lat="45.76241" lon="5.65266">
        <ele>256</ele>
        <time>2019-10-02T20:31:45Z</time>
      </trkpt>
      <trkpt lat="45.76293" lon="5.65322">
        <ele>249</ele>
        <time>2019-10-02T20:32:00Z</time>
      </trkpt>
      <trkpt lat="45.76301" lon="5.6534">
        <ele>246</ele>
        <time>2019-10-02T20:32:03Z</time>
      </trkpt>
      <trkpt lat="45.76303" lon="5.6536">
        <ele>245</ele>
        <time>2019-10-02T20:32:07Z</time>
      </trkpt>
      <trkpt lat="45.76297" lon="5.65379">
        <ele>242</ele>
        <time>2019-10-02T20:32:10Z</time>
      </trkpt>
      <trkpt lat="45.76282" lon="5.65398">
        <ele>240</ele>
        <time>2019-10-02T20:32:15Z</time>
      </trkpt>
      <trkpt lat="45.7622" lon="5.65423">
        <ele>235</ele>
        <time>2019-10-02T20:32:30Z</time>
      </trkpt>
      <trkpt lat="45.76141" lon="5.65451">
        <ele>233</ele>
        <time>2019-10-02T20:32:49Z</time>
      </trkpt>
      <trkpt lat="45.7611" lon="5.65471">
        <ele>232</ele>
        <time>2019-10-02T20:32:57Z</time>
      </trkpt>
      <trkpt lat="45.76096" lon="5.65486">
        <ele>232</ele>
        <time>2019-10-02T20:33:01Z</time>
      </trkpt>
      <trkpt lat="45.76088" lon="5.65511">
        <ele>231</ele>
        <time>2019-10-02T20:33:05Z</time>
      </trkpt>
      <trkpt lat="45.76074" lon="5.65586">
        <ele>228</ele>
        <time>2019-10-02T20:33:18Z</time>
      </trkpt>
      <trkpt lat="45.76052" lon="5.6574">
        <ele>227</ele>
        <time>2019-10-02T20:33:44Z</time>
      </trkpt>
      <trkpt lat="45.76044" lon="5.65771">
        <ele>228</ele>
        <time>2019-10-02T20:33:49Z</time>
      </trkpt>
      <trkpt lat="45.76008" lon="5.65866">
        <ele>228</ele>
        <time>2019-10-02T20:34:07Z</time>
      </trkpt>
      <trkpt lat="45.75989" lon="5.65936">
        <ele>229</ele>
        <time>2019-10-02T20:34:19Z</time>
      </trkpt>
      <trkpt lat="45.75988" lon="5.66">
        <ele>230</ele>
        <time>2019-10-02T20:34:29Z</time>
      </trkpt>
      <trkpt lat="45.75995" lon="5.66152">
        <ele>233</ele>
        <time>2019-10-02T20:34:54Z</time>
      </trkpt>
      <trkpt lat="45.76038" lon="5.6623">
        <ele>234</ele>
        <time>2019-10-02T20:35:10Z</time>
      </trkpt>
      <trkpt lat="45.76087" lon="5.66297">
        <ele>237</ele>
        <time>2019-10-02T20:35:26Z</time>
      </trkpt>
      <trkpt lat="45.76114" lon="5.66318">
        <ele>240</ele>
        <time>2019-10-02T20:35:33Z</time>
      </trkpt>
      <trkpt lat="45.76148" lon="5.66332">
        <ele>243</ele>
        <time>2019-10-02T20:35:42Z</time>
      </trkpt>
      <trkpt lat="45.76155" lon="5.66346">
        <ele>244</ele>
        <time>2019-10-02T20:35:44Z</time>
      </trkpt>
      <trkpt lat="45.76165" lon="5.66399">
        <ele>248</ele>
        <time>2019-10-02T20:35:53Z</time>
      </trkpt>
      <trkpt lat="45.76179" lon="5.66433">
        <ele>250</ele>
        <time>2019-10-02T20:36:00Z</time>
      </trkpt>
      <trkpt lat="45.7619" lon="5.66451">
        <ele>252</ele>
        <time>2019-10-02T20:36:04Z</time>
      </trkpt>
      <trkpt lat="45.76202" lon="5.66465">
        <ele>253</ele>
        <time>2019-10-02T20:36:07Z</time>
      </trkpt>
      <trkpt lat="45.76219" lon="5.66478">
        <ele>255</ele>
        <time>2019-10-02T20:36:12Z</time>
      </trkpt>
      <trkpt lat="45.76237" lon="5.66488">
        <ele>256</ele>
        <time>2019-10-02T20:36:16Z</time>
      </trkpt>
      <trkpt lat="45.76249" lon="5.66487">
        <ele>256</ele>
        <time>2019-10-02T20:36:19Z</time>
      </trkpt>
      <trkpt lat="45.76261" lon="5.6648">
        <ele>257</ele>
        <time>2019-10-02T20:36:22Z</time>
      </trkpt>
      <trkpt lat="45.76289" lon="5.66457">
        <ele>259</ele>
        <time>2019-10-02T20:36:30Z</time>
      </trkpt>
      <trkpt lat="45.763" lon="5.66456">
        <ele>260</ele>
        <time>2019-10-02T20:36:32Z</time>
      </trkpt>
      <trkpt lat="45.76325" lon="5.66444">
        <ele>262</ele>
        <time>2019-10-02T20:36:38Z</time>
      </trkpt>
      <trkpt lat="45.76363" lon="5.66409">
        <ele>262</ele>
        <time>2019-10-02T20:36:49Z</time>
      </trkpt>
      <trkpt lat="45.7638" lon="5.66401">
        <ele>262</ele>
        <time>2019-10-02T20:36:53Z</time>
      </trkpt>
      <trkpt lat="45.76426" lon="5.66382">
        <ele>263</ele>
        <time>2019-10-02T20:37:04Z</time>
      </trkpt>
      <trkpt lat="45.76449" lon="5.66377">
        <ele>263</ele>
        <time>2019-10-02T20:37:10Z</time>
      </trkpt>
      <trkpt lat="45.76473" lon="5.66376">
        <ele>264</ele>
        <time>2019-10-02T20:37:15Z</time>
      </trkpt>
      <trkpt lat="45.76483" lon="5.66378">
        <ele>265</ele>
        <time>2019-10-02T20:37:18Z</time>
      </trkpt>
      <trkpt lat="45.76511" lon="5.66407">
        <ele>269</ele>
        <time>2019-10-02T20:37:26Z</time>
      </trkpt>
      <trkpt lat="45.76519" lon="5.66452">
        <ele>270</ele>
        <time>2019-10-02T20:37:33Z</time>
      </trkpt>
      <trkpt lat="45.76521" lon="5.665">
        <ele>269</ele>
        <time>2019-10-02T20:37:41Z</time>
      </trkpt>
      <trkpt lat="45.7651" lon="5.66554">
        <ele>270</ele>
        <time>2019-10-02T20:37:50Z</time>
      </trkpt>
      <trkpt lat="45.76492" lon="5.6661">
        <ele>272</ele>
        <time>2019-10-02T20:38:00Z</time>
      </trkpt>
      <trkpt lat="45.76481" lon="5.66627">
        <ele>272</ele>
        <time>2019-10-02T20:38:04Z</time>
      </trkpt>
      <trkpt lat="45.76451" lon="5.66662">
        <ele>272</ele>
        <time>2019-10-02T20:38:13Z</time>
      </trkpt>
      <trkpt lat="45.76416" lon="5.66689">
        <ele>273</ele>
        <time>2019-10-02T20:38:22Z</time>
      </trkpt>
      <trkpt lat="45.76382" lon="5.66726">
        <ele>274</ele>
        <time>2019-10-02T20:38:32Z</time>
      </trkpt>
      <trkpt lat="45.76355" lon="5.66774">
        <ele>277</ele>
        <time>2019-10-02T20:38:42Z</time>
      </trkpt>
      <trkpt lat="45.7634" lon="5.66797">
        <ele>278</ele>
        <time>2019-10-02T20:38:48Z</time>
      </trkpt>
      <trkpt lat="45.76333" lon="5.66804">
        <ele>278</ele>
        <time>2019-10-02T20:38:50Z</time>
      </trkpt>
      <trkpt lat="45.76325" lon="5.66809">
        <ele>278</ele>
        <time>2019-10-02T20:38:52Z</time>
      </trkpt>
      <trkpt lat="45.76297" lon="5.66816">
        <ele>279</ele>
        <time>2019-10-02T20:38:58Z</time>
      </trkpt>
      <trkpt lat="45.76199" lon="5.66848">
        <ele>279</ele>
        <time>2019-10-02T20:39:22Z</time>
      </trkpt>
      <trkpt lat="45.76173" lon="5.6686">
        <ele>279</ele>
        <time>2019-10-02T20:39:28Z</time>
      </trkpt>
      <trkpt lat="45.76154" lon="5.66876">
        <ele>278</ele>
        <time>2019-10-02T20:39:33Z</time>
      </trkpt>
      <trkpt lat="45.76106" lon="5.66924">
        <ele>277</ele>
        <time>2019-10-02T20:39:47Z</time>
      </trkpt>
      <trkpt lat="45.76051" lon="5.66991">
        <ele>276</ele>
        <time>2019-10-02T20:40:04Z</time>
      </trkpt>
      <trkpt lat="45.76036" lon="5.67003">
        <ele>276</ele>
        <time>2019-10-02T20:40:08Z</time>
      </trkpt>
      <trkpt lat="45.75985" lon="5.67032">
        <ele>274</ele>
        <time>2019-10-02T20:40:21Z</time>
      </trkpt>
      <trkpt lat="45.75945" lon="5.6708">
        <ele>275</ele>
        <time>2019-10-02T20:40:33Z</time>
      </trkpt>
      <trkpt lat="45.75869" lon="5.67199">
        <ele>281</ele>
        <time>2019-10-02T20:40:59Z</time>
      </trkpt>
      <trkpt lat="45.7585" lon="5.67238">
        <ele>282</ele>
        <time>2019-10-02T20:41:07Z</time>
      </trkpt>
      <trkpt lat="45.75832" lon="5.67295">
        <ele>282</ele>
        <time>2019-10-02T20:41:17Z</time>
      </trkpt>
      <trkpt lat="45.75823" lon="5.67305">
        <ele>282</ele>
        <time>2019-10-02T20:41:20Z</time>
      </trkpt>
      <trkpt lat="45.75796" lon="5.67307">
        <ele>280</ele>
        <time>2019-10-02T20:41:26Z</time>
      </trkpt>
      <trkpt lat="45.75756" lon="5.67304">
        <ele>278</ele>
        <time>2019-10-02T20:41:35Z</time>
      </trkpt>
      <trkpt lat="45.75741" lon="5.67294">
        <ele>277</ele>
        <time>2019-10-02T20:41:39Z</time>
      </trkpt>
      <trkpt lat="45.75723" lon="5.67325">
        <ele>279</ele>
        <time>2019-10-02T20:41:46Z</time>
      </trkpt>
      <trkpt lat="45.75634" lon="5.67457">
        <ele>283</ele>
        <time>2019-10-02T20:42:16Z</time>
      </trkpt>
      <trkpt lat="45.7562" lon="5.67482">
        <ele>284</ele>
        <time>2019-10-02T20:42:21Z</time>
      </trkpt>
      <trkpt lat="45.75593" lon="5.67543">
        <ele>283</ele>
        <time>2019-10-02T20:42:33Z</time>
      </trkpt>
      <trkpt lat="45.75537" lon="5.6772">
        <ele>283</ele>
        <time>2019-10-02T20:43:04Z</time>
      </trkpt>
      <trkpt lat="45.75534" lon="5.67756">
        <ele>284</ele>
        <time>2019-10-02T20:43:10Z</time>
      </trkpt>
      <trkpt lat="45.75537" lon="5.67857">
        <ele>285</ele>
        <time>2019-10-02T20:43:27Z</time>
      </trkpt>
      <trkpt lat="45.75522" lon="5.6794">
        <ele>288</ele>
        <time>2019-10-02T20:43:41Z</time>
      </trkpt>
      <trkpt lat="45.75493" lon="5.68021">
        <ele>291</ele>
        <time>2019-10-02T20:43:56Z</time>
      </trkpt>
      <trkpt lat="45.75469" lon="5.68051">
        <ele>291</ele>
        <time>2019-10-02T20:44:03Z</time>
      </trkpt>
      <trkpt lat="45.75469" lon="5.68065">
        <ele>291</ele>
        <time>2019-10-02T20:44:05Z</time>
      </trkpt>
      <trkpt lat="45.75487" lon="5.68077">
        <ele>291</ele>
        <time>2019-10-02T20:44:10Z</time>
      </trkpt>
      <trkpt lat="45.755" lon="5.6809">
        <ele>292</ele>
        <time>2019-10-02T20:44:14Z</time>
      </trkpt>
      <trkpt lat="45.75518" lon="5.681">
        <ele>291</ele>
        <time>2019-10-02T20:44:18Z</time>
      </trkpt>
      <trkpt lat="45.75574" lon="5.6815">
        <ele>289</ele>
        <time>2019-10-02T20:44:34Z</time>
      </trkpt>
      <trkpt lat="45.75603" lon="5.68166">
        <ele>289</ele>
        <time>2019-10-02T20:44:41Z</time>
      </trkpt>
      <trkpt lat="45.75573" lon="5.6834">
        <ele>287</ele>
        <time>2019-10-02T20:45:10Z</time>
      </trkpt>
      <trkpt lat="45.75573" lon="5.68355">
        <ele>288</ele>
        <time>2019-10-02T20:45:12Z</time>
      </trkpt>
      <trkpt lat="45.75567" lon="5.68376">
        <ele>288</ele>
        <time>2019-10-02T20:45:16Z</time>
      </trkpt>
      <trkpt lat="45.75575" lon="5.68381">
        <ele>288</ele>
        <time>2019-10-02T20:45:18Z</time>
      </trkpt>
      <trkpt lat="45.75605" lon="5.68456">
        <ele>285</ele>
        <time>2019-10-02T20:45:32Z</time>
      </trkpt>
      <trkpt lat="45.75624" lon="5.6851">
        <ele>284</ele>
        <time>2019-10-02T20:45:42Z</time>
      </trkpt>
      <trkpt lat="45.75658" lon="5.68622">
        <ele>284</ele>
        <time>2019-10-02T20:46:02Z</time>
      </trkpt>
      <trkpt lat="45.75795" lon="5.68623">
        <ele>281</ele>
        <time>2019-10-02T20:46:34Z</time>
      </trkpt>
      <trkpt lat="45.75823" lon="5.68626">
        <ele>281</ele>
        <time>2019-10-02T20:46:41Z</time>
      </trkpt>
      <trkpt lat="45.7582" lon="5.68685">
        <ele>281</ele>
        <time>2019-10-02T20:46:50Z</time>
      </trkpt>
      <trkpt lat="45.75807" lon="5.68778">
        <ele>279</ele>
        <time>2019-10-02T20:47:06Z</time>
      </trkpt>
      <trkpt lat="45.7579" lon="5.68828">
        <ele>279</ele>
        <time>2019-10-02T20:47:15Z</time>
      </trkpt>
      <trkpt lat="45.75779" lon="5.68849">
        <ele>280</ele>
        <time>2019-10-02T20:47:19Z</time>
      </trkpt>
      <trkpt lat="45.75775" lon="5.68863">
        <ele>280</ele>
        <time>2019-10-02T20:47:21Z</time>
      </trkpt>
      <trkpt lat="45.75781" lon="5.68878">
        <ele>280</ele>
        <time>2019-10-02T20:47:24Z</time>
      </trkpt>
      <trkpt lat="45.75778" lon="5.68901">
        <ele>280</ele>
        <time>2019-10-02T20:47:28Z</time>
      </trkpt>
      <trkpt lat="45.75801" lon="5.68908">
        <ele>280</ele>
        <time>2019-10-02T20:47:34Z</time>
      </trkpt>
      <trkpt lat="45.75813" lon="5.68908">
        <ele>280</ele>
        <time>2019-10-02T20:47:36Z</time>
      </trkpt>
      <trkpt lat="45.75805" lon="5.68934">
        <ele>281</ele>
        <time>2019-10-02T20:47:41Z</time>
      </trkpt>
    </trkseg>
  </trk>
</gpx>